sensor_id;sensor_type;location;lat;lon;timestamp;pressure;altitude;pressure_sealevel;temperature;humidity
43621;BME280;29213;50.770;7.298;2023-04-26T00:02:24;101076.69;;;3.81;55.15
43621;BME280;29213;50.770;7.298;2023-04-26T00:04:54;101111.72;;;3.96;55.13
43621;BME280;29213;50.770;7.298;2023-04-26T00:07:22;101109.69;;;3.86;55.03
43621;BME280;29213;50.770;7.298;2023-04-26T00:09:50;101081.69;;;3.59;55.11
43621;BME280;29213;50.770;7.298;2023-04-26T00:12:17;101134.38;;;3.85;54.60
43621;BME280;29213;50.770;7.298;2023-04-26T00:14:42;101100.88;;;3.61;54.83
43621;BME280;29213;50.770;7.298;2023-04-26T00:17:08;101113.91;;;3.63;54.83
43621;BME280;29213;50.770;7.298;2023-04-26T00:19:33;101108.78;;;3.61;54.75
43621;BME280;29213;50.770;7.298;2023-04-26T00:21:58;101111.69;;;3.57;55.08
43621;BME280;29213;50.770;7.298;2023-04-26T00:24:24;101164.84;;;3.89;54.94
43621;BME280;29213;50.770;7.298;2023-04-26T00:26:52;101103.50;;;3.48;55.02
43621;BME280;29213;50.770;7.298;2023-04-26T00:29:18;101156.50;;;3.83;55.02
43621;BME280;29213;50.770;7.298;2023-04-26T00:31:43;101010.88;;;2.90;55.08
43621;BME280;29213;50.770;7.298;2023-04-26T00:34:09;100990.22;;;2.71;55.13
43621;BME280;29213;50.770;7.298;2023-04-26T00:36:34;101147.00;;;3.67;55.13
43621;BME280;29213;50.770;7.298;2023-04-26T00:38:59;101068.59;;;3.19;55.65
43621;BME280;29213;50.770;7.298;2023-04-26T00:41:25;101058.69;;;3.09;55.63
43621;BME280;29213;50.770;7.298;2023-04-26T00:43:51;100845.47;;;1.78;56.08
43621;BME280;29213;50.770;7.298;2023-04-26T00:46:16;101117.91;;;3.43;55.48
43621;BME280;29213;50.770;7.298;2023-04-26T00:48:41;101079.09;;;3.06;54.96
43621;BME280;29213;50.770;7.298;2023-04-26T00:51:07;101068.69;;;3.04;55.68
43621;BME280;29213;50.770;7.298;2023-04-26T00:53:33;101058.03;;;2.93;55.26
43621;BME280;29213;50.770;7.298;2023-04-26T00:55:59;101138.16;;;3.42;56.19
43621;BME280;29213;50.770;7.298;2023-04-26T00:58:25;101136.56;;;3.40;55.80
43621;BME280;29213;50.770;7.298;2023-04-26T01:00:51;101120.09;;;3.23;55.73
43621;BME280;29213;50.770;7.298;2023-04-26T01:03:16;101139.72;;;3.32;56.09
43621;BME280;29213;50.770;7.298;2023-04-26T01:05:42;101091.81;;;2.99;55.88
43621;BME280;29213;50.770;7.298;2023-04-26T01:08:08;101139.06;;;3.28;55.56
43621;BME280;29213;50.770;7.298;2023-04-26T01:10:34;101044.91;;;2.65;55.83
43621;BME280;29213;50.770;7.298;2023-04-26T01:13:00;101146.72;;;3.18;55.47
43621;BME280;29213;50.770;7.298;2023-04-26T01:15:27;101042.41;;;2.49;55.35
43621;BME280;29213;50.770;7.298;2023-04-26T01:17:55;101052.94;;;2.49;55.38
43621;BME280;29213;50.770;7.298;2023-04-26T01:20:20;101077.28;;;2.53;55.26
43621;BME280;29213;50.770;7.298;2023-04-26T01:22:46;101054.78;;;2.34;55.49
43621;BME280;29213;50.770;7.298;2023-04-26T01:25:12;101166.13;;;2.90;55.87
43621;BME280;29213;50.770;7.298;2023-04-26T01:27:38;101140.97;;;2.71;56.02
43621;BME280;29213;50.770;7.298;2023-04-26T01:30:04;101062.72;;;2.20;56.15
43621;BME280;29213;50.770;7.298;2023-04-26T01:32:29;101157.94;;;2.80;55.44
43621;BME280;29213;50.770;7.298;2023-04-26T01:34:55;100939.03;;;1.37;55.42
43621;BME280;29213;50.770;7.298;2023-04-26T01:37:20;101058.97;;;2.09;55.65
43621;BME280;29213;50.770;7.298;2023-04-26T01:39:46;101053.72;;;2.09;56.00
43621;BME280;29213;50.770;7.298;2023-04-26T01:42:11;101102.66;;;2.39;55.50
43621;BME280;29213;50.770;7.298;2023-04-26T01:44:36;101160.34;;;2.70;55.83
43621;BME280;29213;50.770;7.298;2023-04-26T01:47:02;101063.38;;;2.09;55.64
43621;BME280;29213;50.770;7.298;2023-04-26T01:49:28;100948.72;;;1.37;55.55
43621;BME280;29213;50.770;7.298;2023-04-26T01:51:53;101080.66;;;2.13;55.35
43621;BME280;29213;50.770;7.298;2023-04-26T01:54:19;101145.47;;;2.41;55.37
43621;BME280;29213;50.770;7.298;2023-04-26T01:56:45;101054.16;;;1.87;55.46
43621;BME280;29213;50.770;7.298;2023-04-26T01:59:10;101129.41;;;2.32;55.80
43621;BME280;29213;50.770;7.298;2023-04-26T02:01:36;101023.06;;;1.66;55.73
43621;BME280;29213;50.770;7.298;2023-04-26T02:04:01;101105.25;;;2.12;56.29
43621;BME280;29213;50.770;7.298;2023-04-26T02:06:27;101053.72;;;1.80;55.72
43621;BME280;29213;50.770;7.298;2023-04-26T02:08:52;101153.63;;;2.37;56.11
43621;BME280;29213;50.770;7.298;2023-04-26T02:11:18;101155.63;;;2.33;56.22
43621;BME280;29213;50.770;7.298;2023-04-26T02:13:43;101134.88;;;2.14;56.37
43621;BME280;29213;50.770;7.298;2023-04-26T02:16:09;101028.69;;;1.45;56.01
43621;BME280;29213;50.770;7.298;2023-04-26T02:18:34;101093.69;;;1.85;55.97
43621;BME280;29213;50.770;7.298;2023-04-26T02:21:00;101034.78;;;1.46;56.08
43621;BME280;29213;50.770;7.298;2023-04-26T02:23:25;101069.47;;;1.66;56.45
43621;BME280;29213;50.770;7.298;2023-04-26T02:25:51;101159.47;;;2.13;56.15
43621;BME280;29213;50.770;7.298;2023-04-26T02:28:16;101133.53;;;1.92;56.03
43621;BME280;29213;50.770;7.298;2023-04-26T02:30:41;101108.97;;;1.79;55.96
43621;BME280;29213;50.770;7.298;2023-04-26T02:33:07;101150.47;;;2.03;55.85
43621;BME280;29213;50.770;7.298;2023-04-26T02:35:34;101156.72;;;2.00;55.95
43621;BME280;29213;50.770;7.298;2023-04-26T02:37:59;101128.75;;;1.84;56.34
43621;BME280;29213;50.770;7.298;2023-04-26T02:40:25;101058.75;;;1.40;56.20
43621;BME280;29213;50.770;7.298;2023-04-26T02:42:50;101077.69;;;1.45;56.34
43621;BME280;29213;50.770;7.298;2023-04-26T02:45:16;101155.50;;;1.91;56.31
43621;BME280;29213;50.770;7.298;2023-04-26T02:47:41;101110.91;;;1.60;56.54
43621;BME280;29213;50.770;7.298;2023-04-26T02:50:07;101048.44;;;1.22;56.43
43621;BME280;29213;50.770;7.298;2023-04-26T02:52:36;101049.53;;;1.18;55.90
43621;BME280;29213;50.770;7.298;2023-04-26T02:55:02;101096.84;;;1.47;56.44
43621;BME280;29213;50.770;7.298;2023-04-26T02:57:29;101153.72;;;1.77;56.31
43621;BME280;29213;50.770;7.298;2023-04-26T02:59:54;100987.44;;;0.73;56.10
43621;BME280;29213;50.770;7.298;2023-04-26T03:02:20;101147.22;;;1.68;56.94
43621;BME280;29213;50.770;7.298;2023-04-26T03:04:46;101097.66;;;1.33;56.52
43621;BME280;29213;50.770;7.298;2023-04-26T03:07:12;101096.06;;;1.30;56.36
43621;BME280;29213;50.770;7.298;2023-04-26T03:09:37;101106.47;;;1.32;56.61
43621;BME280;29213;50.770;7.298;2023-04-26T03:12:05;101072.94;;;1.06;56.70
43621;BME280;29213;50.770;7.298;2023-04-26T03:14:30;101067.03;;;1.03;56.61
43621;BME280;29213;50.770;7.298;2023-04-26T03:16:56;101143.81;;;1.52;56.70
43621;BME280;29213;50.770;7.298;2023-04-26T03:19:21;101024.63;;;0.80;56.49
43621;BME280;29213;50.770;7.298;2023-04-26T03:21:46;101142.78;;;1.54;56.70
43621;BME280;29213;50.770;7.298;2023-04-26T03:24:12;101024.91;;;0.75;56.51
43621;BME280;29213;50.770;7.298;2023-04-26T03:26:37;101115.91;;;1.20;56.82
43621;BME280;29213;50.770;7.298;2023-04-26T03:29:03;101044.78;;;0.79;56.81
43621;BME280;29213;50.770;7.298;2023-04-26T03:31:29;101082.09;;;0.99;56.47
43621;BME280;29213;50.770;7.298;2023-04-26T03:33:54;101056.88;;;0.82;56.65
43621;BME280;29213;50.770;7.298;2023-04-26T03:36:20;101077.13;;;0.94;56.99
43621;BME280;29213;50.770;7.298;2023-04-26T03:38:45;101091.06;;;1.11;57.13
43621;BME280;29213;50.770;7.298;2023-04-26T03:41:11;101084.00;;;1.12;56.97
43621;BME280;29213;50.770;7.298;2023-04-26T03:43:37;101041.13;;;0.82;57.25
43621;BME280;29213;50.770;7.298;2023-04-26T03:46:03;101027.59;;;0.74;56.89
43621;BME280;29213;50.770;7.298;2023-04-26T03:48:28;101098.72;;;1.14;56.56
43621;BME280;29213;50.770;7.298;2023-04-26T03:50:54;101095.34;;;1.12;56.77
43621;BME280;29213;50.770;7.298;2023-04-26T03:53:19;101051.34;;;0.87;56.96
43621;BME280;29213;50.770;7.298;2023-04-26T03:55:45;101055.66;;;0.88;56.97
43621;BME280;29213;50.770;7.298;2023-04-26T03:58:10;101137.41;;;1.41;56.83
43621;BME280;29213;50.770;7.298;2023-04-26T04:00:37;101141.72;;;1.42;56.93
43621;BME280;29213;50.770;7.298;2023-04-26T04:03:02;100968.88;;;0.31;56.87
43621;BME280;29213;50.770;7.298;2023-04-26T04:05:28;101044.78;;;0.79;57.28
43621;BME280;29213;50.770;7.298;2023-04-26T04:07:53;101141.72;;;1.42;57.18
43621;BME280;29213;50.770;7.298;2023-04-26T04:10:21;101060.16;;;0.86;56.78
43621;BME280;29213;50.770;7.298;2023-04-26T04:12:47;100926.63;;;0.05;57.11
43621;BME280;29213;50.770;7.298;2023-04-26T04:15:12;101081.16;;;1.00;57.29
43621;BME280;29213;50.770;7.298;2023-04-26T04:17:38;101139.38;;;1.38;57.23
43621;BME280;29213;50.770;7.298;2023-04-26T04:20:04;101137.78;;;1.35;57.38
43621;BME280;29213;50.770;7.298;2023-04-26T04:22:31;101147.09;;;1.41;57.18
43621;BME280;29213;50.770;7.298;2023-04-26T04:24:57;101143.53;;;1.42;57.04
43621;BME280;29213;50.770;7.298;2023-04-26T04:27:25;101157.47;;;1.42;57.25
43621;BME280;29213;50.770;7.298;2023-04-26T04:29:51;101148.00;;;1.40;57.20
43621;BME280;29213;50.770;7.298;2023-04-26T04:32:18;101010.56;;;0.50;57.29
43621;BME280;29213;50.770;7.298;2023-04-26T04:34:44;101151.56;;;1.39;57.41
43621;BME280;29213;50.770;7.298;2023-04-26T04:37:10;101165.53;;;1.39;57.64
43621;BME280;29213;50.770;7.298;2023-04-26T04:39:36;101074.94;;;0.87;57.44
43621;BME280;29213;50.770;7.298;2023-04-26T04:42:01;101114.00;;;1.07;57.35
43621;BME280;29213;50.770;7.298;2023-04-26T04:44:27;101065.84;;;0.78;57.44
43621;BME280;29213;50.770;7.298;2023-04-26T04:46:52;101051.13;;;0.75;57.60
43621;BME280;29213;50.770;7.298;2023-04-26T04:49:18;101079.19;;;0.89;57.17
43621;BME280;29213;50.770;7.298;2023-04-26T04:51:43;101169.56;;;1.45;57.24
43621;BME280;29213;50.770;7.298;2023-04-26T04:54:11;101167.91;;;1.44;57.29
43621;BME280;29213;50.770;7.298;2023-04-26T04:56:37;101157.25;;;1.31;57.81
43621;BME280;29213;50.770;7.298;2023-04-26T04:59:02;101156.59;;;1.27;57.76
43621;BME280;29213;50.770;7.298;2023-04-26T05:01:30;101126.50;;;1.18;57.35
43621;BME280;29213;50.770;7.298;2023-04-26T05:03:56;101016.31;;;0.57;57.59
43621;BME280;29213;50.770;7.298;2023-04-26T05:06:22;101144.13;;;1.31;56.99
43621;BME280;29213;50.770;7.298;2023-04-26T05:08:47;101141.34;;;1.34;57.45
43621;BME280;29213;50.770;7.298;2023-04-26T05:11:12;101098.44;;;1.04;57.16
43621;BME280;29213;50.770;7.298;2023-04-26T05:13:38;101111.09;;;1.12;57.60
43621;BME280;29213;50.770;7.298;2023-04-26T05:16:03;101164.34;;;1.45;57.61
43621;BME280;29213;50.770;7.298;2023-04-26T05:18:29;101113.56;;;1.15;57.77
43621;BME280;29213;50.770;7.298;2023-04-26T05:20:54;101098.91;;;1.11;57.72
43621;BME280;29213;50.770;7.298;2023-04-26T05:23:21;101103.81;;;1.17;57.62
43621;BME280;29213;50.770;7.298;2023-04-26T05:25:46;101132.25;;;1.40;57.20
43621;BME280;29213;50.770;7.298;2023-04-26T05:28:12;101106.34;;;1.19;57.64
43621;BME280;29213;50.770;7.298;2023-04-26T05:30:38;101089.84;;;1.17;57.28
43621;BME280;29213;50.770;7.298;2023-04-26T05:33:03;101184.66;;;1.72;57.53
43621;BME280;29213;50.770;7.298;2023-04-26T05:35:29;101154.97;;;1.55;57.31
43621;BME280;29213;50.770;7.298;2023-04-26T05:37:54;101058.69;;;0.96;57.28
43621;BME280;29213;50.770;7.298;2023-04-26T05:40:20;101031.38;;;0.84;57.57
43621;BME280;29213;50.770;7.298;2023-04-26T05:42:45;101110.88;;;1.31;57.71
43621;BME280;29213;50.770;7.298;2023-04-26T05:45:11;101214.44;;;2.01;57.67
43621;BME280;29213;50.770;7.298;2023-04-26T05:47:36;101164.41;;;1.74;58.02
43621;BME280;29213;50.770;7.298;2023-04-26T05:50:02;101168.44;;;1.80;57.85
43621;BME280;29213;50.770;7.298;2023-04-26T05:52:27;101083.41;;;1.37;57.63
43621;BME280;29213;50.770;7.298;2023-04-26T05:54:53;101224.06;;;2.32;57.57
43621;BME280;29213;50.770;7.298;2023-04-26T05:57:18;101190.25;;;2.25;57.26
43621;BME280;29213;50.770;7.298;2023-04-26T05:59:44;101055.97;;;1.43;57.12
43621;BME280;29213;50.770;7.298;2023-04-26T06:02:09;101148.94;;;1.84;57.25
43621;BME280;29213;50.770;7.298;2023-04-26T06:04:35;101223.50;;;2.41;57.81
43621;BME280;29213;50.770;7.298;2023-04-26T06:07:01;101171.28;;;2.20;58.14
43621;BME280;29213;50.770;7.298;2023-04-26T06:09:26;101171.22;;;2.36;57.30
43621;BME280;29213;50.770;7.298;2023-04-26T06:11:52;101136.31;;;2.20;57.14
43621;BME280;29213;50.770;7.298;2023-04-26T06:14:17;101104.38;;;2.11;56.90
43621;BME280;29213;50.770;7.298;2023-04-26T06:16:43;101024.53;;;1.70;56.99
43621;BME280;29213;50.770;7.298;2023-04-26T06:19:08;101161.13;;;2.58;56.89
43621;BME280;29213;50.770;7.298;2023-04-26T06:21:34;101054.94;;;2.04;56.51
43621;BME280;29213;50.770;7.298;2023-04-26T06:23:59;101115.94;;;2.51;56.48
43621;BME280;29213;50.770;7.298;2023-04-26T06:26:25;101210.13;;;3.15;56.23
43621;BME280;29213;50.770;7.298;2023-04-26T06:28:50;101222.16;;;3.32;56.19
43621;BME280;29213;50.770;7.298;2023-04-26T06:31:15;100989.06;;;2.07;60.89
43621;BME280;29213;50.770;7.298;2023-04-26T06:33:41;101172.31;;;3.70;59.35
43621;BME280;29213;50.770;7.298;2023-04-26T06:36:10;101126.03;;;3.53;55.71
43621;BME280;29213;50.770;7.298;2023-04-26T06:38:35;101230.19;;;4.10;54.96
43621;BME280;29213;50.770;7.298;2023-04-26T06:41:01;101155.34;;;3.74;54.72
43621;BME280;29213;50.770;7.298;2023-04-26T06:43:26;101173.66;;;3.88;54.60
43621;BME280;29213;50.770;7.298;2023-04-26T06:45:52;101221.31;;;4.24;54.58
43621;BME280;29213;50.770;7.298;2023-04-26T06:48:17;101182.13;;;4.07;54.40
43621;BME280;29213;50.770;7.298;2023-04-26T06:50:42;101152.38;;;4.05;54.09
43621;BME280;29213;50.770;7.298;2023-04-26T06:53:08;101182.91;;;4.33;54.14
43621;BME280;29213;50.770;7.298;2023-04-26T06:55:33;101119.91;;;4.04;53.66
43621;BME280;29213;50.770;7.298;2023-04-26T06:57:59;101209.16;;;4.74;53.37
43621;BME280;29213;50.770;7.298;2023-04-26T07:00:24;101164.22;;;4.49;53.10
43621;BME280;29213;50.770;7.298;2023-04-26T07:02:50;101188.47;;;4.67;52.88
43621;BME280;29213;50.770;7.298;2023-04-26T07:05:15;101203.72;;;4.88;53.03
43621;BME280;29213;50.770;7.298;2023-04-26T07:07:41;101160.19;;;4.69;52.85
43621;BME280;29213;50.770;7.298;2023-04-26T07:10:08;101168.78;;;4.85;52.78
43621;BME280;29213;50.770;7.298;2023-04-26T07:12:33;101137.78;;;4.75;52.27
43621;BME280;29213;50.770;7.298;2023-04-26T07:14:59;101224.78;;;5.50;51.66
43621;BME280;29213;50.770;7.298;2023-04-26T07:17:26;101234.78;;;5.58;51.68
43621;BME280;29213;50.770;7.298;2023-04-26T07:19:51;101213.75;;;5.56;51.40
43621;BME280;29213;50.770;7.298;2023-04-26T07:22:17;101200.53;;;5.56;51.70
43621;BME280;29213;50.770;7.298;2023-04-26T07:24:42;101173.16;;;5.57;51.56
43621;BME280;29213;50.770;7.298;2023-04-26T07:27:07;101221.88;;;6.00;51.18
43621;BME280;29213;50.770;7.298;2023-04-26T07:29:33;101112.34;;;5.34;51.28
43621;BME280;29213;50.770;7.298;2023-04-26T07:31:58;101214.34;;;6.07;51.28
43621;BME280;29213;50.770;7.298;2023-04-26T07:34:24;101172.13;;;5.94;51.09
43621;BME280;29213;50.770;7.298;2023-04-26T07:36:49;101146.88;;;5.79;50.48
43621;BME280;29213;50.770;7.298;2023-04-26T07:39:15;101178.75;;;6.11;50.11
43621;BME280;29213;50.770;7.298;2023-04-26T07:41:40;101133.44;;;5.93;50.25
43621;BME280;29213;50.770;7.298;2023-04-26T07:44:06;101185.72;;;6.24;50.13
43621;BME280;29213;50.770;7.298;2023-04-26T07:46:32;101166.84;;;6.28;49.48
43621;BME280;29213;50.770;7.298;2023-04-26T07:48:59;101201.25;;;6.51;49.30
43621;BME280;29213;50.770;7.298;2023-04-26T07:51:24;101148.31;;;6.28;49.08
43621;BME280;29213;50.770;7.298;2023-04-26T07:53:51;101166.34;;;6.35;48.49
43621;BME280;29213;50.770;7.298;2023-04-26T07:56:17;101051.72;;;5.67;48.47
43621;BME280;29213;50.770;7.298;2023-04-26T07:58:42;101212.88;;;6.72;48.13
43621;BME280;29213;50.770;7.298;2023-04-26T08:01:08;101083.19;;;6.05;47.76
43621;BME280;29213;50.770;7.298;2023-04-26T08:03:33;101187.75;;;6.77;48.24
43621;BME280;29213;50.770;7.298;2023-04-26T08:05:59;101057.34;;;5.97;47.48
43621;BME280;29213;50.770;7.298;2023-04-26T08:08:25;101173.31;;;6.70;47.44
43621;BME280;29213;50.770;7.298;2023-04-26T08:10:51;101223.75;;;7.13;47.89
43621;BME280;29213;50.770;7.298;2023-04-26T08:13:16;101202.03;;;7.19;48.15
43621;BME280;29213;50.770;7.298;2023-04-26T08:15:42;101134.25;;;6.95;47.17
43621;BME280;29213;50.770;7.298;2023-04-26T08:18:07;101171.22;;;7.18;45.60
43621;BME280;29213;50.770;7.298;2023-04-26T08:20:32;101137.28;;;6.90;46.28
43621;BME280;29213;50.770;7.298;2023-04-26T08:22:58;101205.06;;;7.47;46.70
43621;BME280;29213;50.770;7.298;2023-04-26T08:25:24;101176.34;;;7.31;46.30
43621;BME280;29213;50.770;7.298;2023-04-26T08:27:50;101223.19;;;7.63;46.01
43621;BME280;29213;50.770;7.298;2023-04-26T08:30:16;101139.03;;;7.22;46.46
43621;BME280;29213;50.770;7.298;2023-04-26T08:32:41;101194.03;;;7.63;46.28
43621;BME280;29213;50.770;7.298;2023-04-26T08:35:07;101198.28;;;7.75;46.31
43621;BME280;29213;50.770;7.298;2023-04-26T08:37:33;101011.63;;;6.62;44.63
43621;BME280;29213;50.770;7.298;2023-04-26T08:40:00;101145.97;;;7.56;45.35
43621;BME280;29213;50.770;7.298;2023-04-26T08:42:26;101147.97;;;7.64;44.55
43621;BME280;29213;50.770;7.298;2023-04-26T08:44:53;101183.44;;;7.94;44.24
43621;BME280;29213;50.770;7.298;2023-04-26T08:47:27;101124.25;;;7.62;43.27
43621;BME280;29213;50.770;7.298;2023-04-26T08:49:53;101112.53;;;7.65;49.67
43621;BME280;29213;50.770;7.298;2023-04-26T08:52:29;101204.50;;;8.38;43.96
43621;BME280;29213;50.770;7.298;2023-04-26T08:54:56;101200.69;;;8.31;41.91
43621;BME280;29213;50.770;7.298;2023-04-26T08:57:23;101172.22;;;8.33;44.21
43621;BME280;29213;50.770;7.298;2023-04-26T08:59:49;101092.25;;;8.16;43.10
43621;BME280;29213;50.770;7.298;2023-04-26T09:02:17;101200.16;;;8.98;42.77
43621;BME280;29213;50.770;7.298;2023-04-26T09:04:45;101201.41;;;9.04;42.15
43621;BME280;29213;50.770;7.298;2023-04-26T09:07:26;101114.50;;;8.35;40.46
43621;BME280;29213;50.770;7.298;2023-04-26T09:09:56;101095.19;;;8.23;40.90
43621;BME280;29213;50.770;7.298;2023-04-26T09:12:22;101090.19;;;8.40;41.72
43621;BME280;29213;50.770;7.298;2023-04-26T09:14:48;101197.66;;;9.16;40.38
43621;BME280;29213;50.770;7.298;2023-04-26T09:17:27;100721.75;;;6.26;37.34
43621;BME280;29213;50.770;7.298;2023-04-26T09:19:53;101196.53;;;9.19;40.61
43621;BME280;29213;50.770;7.298;2023-04-26T09:22:35;101015.19;;;8.67;47.96
43621;BME280;29213;50.770;7.298;2023-04-26T09:25:03;101199.59;;;10.49;45.10
43621;BME280;29213;50.770;7.298;2023-04-26T09:27:37;101123.53;;;9.81;40.34
43621;BME280;29213;50.770;7.298;2023-04-26T09:30:08;101195.25;;;10.48;44.60
43621;BME280;29213;50.770;7.298;2023-04-26T09:32:47;101197.09;;;10.76;40.76
43621;BME280;29213;50.770;7.298;2023-04-26T09:37:59;100969.97;;;9.45;41.26
43621;BME280;29213;50.770;7.298;2023-04-26T09:40:27;101126.22;;;11.01;40.94
43621;BME280;29213;50.770;7.298;2023-04-26T09:42:57;101181.09;;;11.75;37.63
43621;BME280;29213;50.770;7.298;2023-04-26T09:45:23;101103.00;;;11.38;35.43
43621;BME280;29213;50.770;7.298;2023-04-26T09:47:49;101112.47;;;11.32;36.07
43621;BME280;29213;50.770;7.298;2023-04-26T09:50:25;101058.09;;;10.80;35.17
43621;BME280;29213;50.770;7.298;2023-04-26T09:52:51;100828.34;;;9.25;35.32
43621;BME280;29213;50.770;7.298;2023-04-26T09:55:29;101033.81;;;10.47;34.88
43621;BME280;29213;50.770;7.298;2023-04-26T09:57:58;101059.22;;;10.60;34.15
43621;BME280;29213;50.770;7.298;2023-04-26T10:00:28;101034.78;;;10.46;34.33
43621;BME280;29213;50.770;7.298;2023-04-26T10:02:55;101167.66;;;11.14;33.24
43621;BME280;29213;50.770;7.298;2023-04-26T10:05:21;101011.41;;;10.03;32.47
43621;BME280;29213;50.770;7.298;2023-04-26T10:07:48;101132.66;;;10.62;32.25
43621;BME280;29213;50.770;7.298;2023-04-26T10:10:13;101120.09;;;10.54;31.55
43621;BME280;29213;50.770;7.298;2023-04-26T10:12:39;101158.88;;;10.85;32.34
43621;BME280;29213;50.770;7.298;2023-04-26T10:15:08;101070.31;;;10.37;32.99
43621;BME280;29213;50.770;7.298;2023-04-26T10:17:33;101162.78;;;10.91;33.92
43621;BME280;29213;50.770;7.298;2023-04-26T10:20:00;101131.75;;;10.72;34.22
43621;BME280;29213;50.770;7.298;2023-04-26T10:22:31;101162.28;;;10.77;34.21
43621;BME280;29213;50.770;7.298;2023-04-26T10:24:58;101138.69;;;10.64;34.66
43621;BME280;29213;50.770;7.298;2023-04-26T10:27:46;101110.09;;;10.38;35.01
43621;BME280;29213;50.770;7.298;2023-04-26T10:30:16;101047.47;;;10.16;34.56
43621;BME280;29213;50.770;7.298;2023-04-26T10:35:21;101163.59;;;10.91;33.79
43621;BME280;29213;50.770;7.298;2023-04-26T10:38:13;101158.19;;;10.83;33.56
43621;BME280;29213;50.770;7.298;2023-04-26T10:40:40;101083.53;;;10.47;34.02
43621;BME280;29213;50.770;7.298;2023-04-26T10:45:34;101147.00;;;11.16;34.23
43621;BME280;29213;50.770;7.298;2023-04-26T10:48:27;101120.19;;;11.44;33.00
43621;BME280;29213;50.770;7.298;2023-04-26T10:51:06;101074.34;;;11.40;32.81
43621;BME280;29213;50.770;7.298;2023-04-26T10:58:49;101100.72;;;12.05;29.97
43621;BME280;29213;50.770;7.298;2023-04-26T11:01:30;101029.03;;;11.83;30.40
43621;BME280;29213;50.770;7.298;2023-04-26T11:06:22;101135.00;;;12.26;29.83
43621;BME280;29213;50.770;7.298;2023-04-26T11:08:47;101125.63;;;12.22;30.05
43621;BME280;29213;50.770;7.298;2023-04-26T11:11:15;101092.34;;;11.99;30.23
43621;BME280;29213;50.770;7.298;2023-04-26T11:13:42;101092.59;;;11.88;29.58
43621;BME280;29213;50.770;7.298;2023-04-26T11:16:15;101108.09;;;11.84;29.53
43621;BME280;29213;50.770;7.298;2023-04-26T11:18:45;101029.06;;;11.48;31.47
43621;BME280;29213;50.770;7.298;2023-04-26T11:21:11;100921.59;;;10.68;31.02
43621;BME280;29213;50.770;7.298;2023-04-26T11:23:39;101124.41;;;12.08;31.55
43621;BME280;29213;50.770;7.298;2023-04-26T11:26:06;101125.25;;;12.08;30.86
43621;BME280;29213;50.770;7.298;2023-04-26T11:28:36;101122.44;;;11.83;29.21
43621;BME280;29213;50.770;7.298;2023-04-26T11:31:03;101120.88;;;11.72;29.31
43621;BME280;29213;50.770;7.298;2023-04-26T11:33:29;101122.06;;;11.78;30.78
43621;BME280;29213;50.770;7.298;2023-04-26T11:35:56;101052.88;;;11.50;29.68
43621;BME280;29213;50.770;7.298;2023-04-26T11:38:23;101056.34;;;11.69;29.12
43621;BME280;29213;50.770;7.298;2023-04-26T11:40:57;101110.44;;;12.22;30.03
43621;BME280;29213;50.770;7.298;2023-04-26T11:43:35;101059.63;;;11.97;28.79
43621;BME280;29213;50.770;7.298;2023-04-26T11:46:01;101103.44;;;12.29;29.31
43621;BME280;29213;50.770;7.298;2023-04-26T11:48:28;101028.09;;;11.93;30.06
43621;BME280;29213;50.770;7.298;2023-04-26T11:50:55;101045.16;;;12.08;29.54
43621;BME280;29213;50.770;7.298;2023-04-26T11:53:21;100960.97;;;11.79;29.82
43621;BME280;29213;50.770;7.298;2023-04-26T11:55:46;101016.25;;;12.03;28.15
43621;BME280;29213;50.770;7.298;2023-04-26T11:58:13;101060.38;;;11.81;28.01
43621;BME280;29213;50.770;7.298;2023-04-26T12:00:58;101088.03;;;12.07;28.37
43621;BME280;29213;50.770;7.298;2023-04-26T12:03:31;101091.63;;;12.32;28.65
43621;BME280;29213;50.770;7.298;2023-04-26T12:05:59;101068.97;;;12.53;29.32
43621;BME280;29213;50.770;7.298;2023-04-26T12:08:26;101026.34;;;12.60;37.75
43621;BME280;29213;50.770;7.298;2023-04-26T12:10:52;101086.91;;;13.75;31.05
43621;BME280;29213;50.770;7.298;2023-04-26T12:13:18;101052.41;;;13.81;27.99
43621;BME280;29213;50.770;7.298;2023-04-26T12:15:45;101084.50;;;14.29;26.23
43621;BME280;29213;50.770;7.298;2023-04-26T12:18:11;100997.47;;;13.61;26.15
43621;BME280;29213;50.770;7.298;2023-04-26T12:20:40;101093.09;;;14.48;26.07
43621;BME280;29213;50.770;7.298;2023-04-26T12:23:23;101090.91;;;14.75;25.37
43621;BME280;29213;50.770;7.298;2023-04-26T12:25:56;101054.69;;;14.55;24.83
43621;BME280;29213;50.770;7.298;2023-04-26T12:28:23;101071.66;;;14.71;24.83
43621;BME280;29213;50.770;7.298;2023-04-26T12:30:50;101092.59;;;14.91;24.70
43621;BME280;29213;50.770;7.298;2023-04-26T12:33:15;101043.66;;;14.74;25.49
43621;BME280;29213;50.770;7.298;2023-04-26T12:35:44;100974.53;;;14.22;24.57
43621;BME280;29213;50.770;7.298;2023-04-26T12:38:11;101086.34;;;14.99;24.31
43621;BME280;29213;50.770;7.298;2023-04-26T12:40:37;101085.75;;;15.12;23.56
43621;BME280;29213;50.770;7.298;2023-04-26T12:43:02;101024.25;;;14.48;23.53
43621;BME280;29213;50.770;7.298;2023-04-26T12:45:28;101081.97;;;14.82;23.66
43621;BME280;29213;50.770;7.298;2023-04-26T12:47:53;101070.34;;;14.67;23.53
43621;BME280;29213;50.770;7.298;2023-04-26T12:50:19;101076.47;;;14.52;22.78
43621;BME280;29213;50.770;7.298;2023-04-26T12:52:45;101030.78;;;13.90;24.20
43621;BME280;29213;50.770;7.298;2023-04-26T12:55:12;100957.03;;;13.80;25.04
43621;BME280;29213;50.770;7.298;2023-04-26T12:57:39;101007.75;;;14.36;25.39
43621;BME280;29213;50.770;7.298;2023-04-26T13:00:08;101005.25;;;14.35;24.49
43621;BME280;29213;50.770;7.298;2023-04-26T13:02:34;101066.69;;;14.83;24.73
43621;BME280;29213;50.770;7.298;2023-04-26T13:05:00;101013.47;;;14.56;24.80
43621;BME280;29213;50.770;7.298;2023-04-26T13:07:30;101015.31;;;14.33;24.43
43621;BME280;29213;50.770;7.298;2023-04-26T13:09:55;100989.91;;;14.28;25.16
43621;BME280;29213;50.770;7.298;2023-04-26T13:12:21;101068.59;;;14.74;24.70